Terminal Aerodrome Forecast
Issued by NWS

Home | Current Version | Previous Version | Text Only | Print | Product List | Glossary On
Versions: 1 2 3 4 5 6 7 8 9 10 11 12 13 14 15 16 17 18 19 20 21 22 23 24 25 26 27 28 29 30 31 32 33 34 35 36 37 38 39 40 41 42
000
FTUS46 KEKA 190540
TAFACV
TAF
KACV 190540Z 1906/2006 17010KT 6SM -RA BR FEW015 SCT025 OVC070
     FM191200 17006KT P6SM -SHRA FEW015 SCT030 OVC050
     FM191800 19009KT P6SM FEW040 SCT100
     FM200300 18010KT P6SM -SHRA BKN050 OVC100=

USA.gov is the U.S. government's official web portal to all federal, state and local government web resources and services.